sensor_id;sensor_type;location;lat;lon;timestamp;temperature;humidity
82243;DHT22;71844;51.528;4.442;2023-07-28T00:02:01;17.80;93.60
82243;DHT22;71844;51.528;4.442;2023-07-28T00:04:28;17.80;93.80
82243;DHT22;71844;51.528;4.442;2023-07-28T00:06:54;17.80;93.80
82243;DHT22;71844;51.528;4.442;2023-07-28T00:09:21;17.80;93.70
82243;DHT22;71844;51.528;4.442;2023-07-28T00:11:49;17.80;93.60
82243;DHT22;71844;51.528;4.442;2023-07-28T00:14:16;17.80;93.60
82243;DHT22;71844;51.528;4.442;2023-07-28T00:16:43;17.80;93.70
82243;DHT22;71844;51.528;4.442;2023-07-28T00:19:10;17.80;93.50
82243;DHT22;71844;51.528;4.442;2023-07-28T00:21:37;17.80;93.50
82243;DHT22;71844;51.528;4.442;2023-07-28T00:24:04;17.80;93.60
82243;DHT22;71844;51.528;4.442;2023-07-28T00:26:31;17.80;93.60
82243;DHT22;71844;51.528;4.442;2023-07-28T00:28:58;17.80;93.80
82243;DHT22;71844;51.528;4.442;2023-07-28T00:31:25;17.80;93.60
82243;DHT22;71844;51.528;4.442;2023-07-28T00:33:52;17.80;93.50
82243;DHT22;71844;51.528;4.442;2023-07-28T00:36:19;17.80;93.40
82243;DHT22;71844;51.528;4.442;2023-07-28T00:38:46;17.80;93.40
82243;DHT22;71844;51.528;4.442;2023-07-28T00:41:13;17.80;93.40
82243;DHT22;71844;51.528;4.442;2023-07-28T00:43:39;17.80;93.40
82243;DHT22;71844;51.528;4.442;2023-07-28T00:46:06;17.80;93.30
82243;DHT22;71844;51.528;4.442;2023-07-28T00:48:33;17.80;93.20
82243;DHT22;71844;51.528;4.442;2023-07-28T00:51:00;17.80;93.50
82243;DHT22;71844;51.528;4.442;2023-07-28T00:53:29;17.80;93.60
82243;DHT22;71844;51.528;4.442;2023-07-28T00:55:56;17.80;93.40
82243;DHT22;71844;51.528;4.442;2023-07-28T00:58:23;17.80;93.40
82243;DHT22;71844;51.528;4.442;2023-07-28T01:03:35;17.80;93.40
82243;DHT22;71844;51.528;4.442;2023-07-28T01:06:18;17.80;93.30
82243;DHT22;71844;51.528;4.442;2023-07-28T01:08:57;17.90;93.30
82243;DHT22;71844;51.528;4.442;2023-07-28T01:11:25;17.80;93.30
82243;DHT22;71844;51.528;4.442;2023-07-28T01:13:51;17.90;93.50
82243;DHT22;71844;51.528;4.442;2023-07-28T01:16:18;17.90;93.40
82243;DHT22;71844;51.528;4.442;2023-07-28T01:18:45;17.90;93.30
82243;DHT22;71844;51.528;4.442;2023-07-28T01:21:22;17.80;93.30
82243;DHT22;71844;51.528;4.442;2023-07-28T01:24:37;17.80;93.20
82243;DHT22;71844;51.528;4.442;2023-07-28T01:26:57;17.80;93.30
82243;DHT22;71844;51.528;4.442;2023-07-28T01:29:24;17.90;93.30
82243;DHT22;71844;51.528;4.442;2023-07-28T01:31:51;17.80;93.30
82243;DHT22;71844;51.528;4.442;2023-07-28T01:34:18;17.80;93.30
82243;DHT22;71844;51.528;4.442;2023-07-28T01:36:45;17.90;93.30
82243;DHT22;71844;51.528;4.442;2023-07-28T01:39:12;17.90;93.30
82243;DHT22;71844;51.528;4.442;2023-07-28T01:41:38;17.90;93.30
82243;DHT22;71844;51.528;4.442;2023-07-28T01:44:10;17.90;93.30
82243;DHT22;71844;51.528;4.442;2023-07-28T01:46:38;17.90;93.30
82243;DHT22;71844;51.528;4.442;2023-07-28T01:49:06;17.90;93.20
82243;DHT22;71844;51.528;4.442;2023-07-28T01:51:32;17.90;93.10
82243;DHT22;71844;51.528;4.442;2023-07-28T01:53:59;17.90;93.10
82243;DHT22;71844;51.528;4.442;2023-07-28T01:56:26;17.90;93.30
82243;DHT22;71844;51.528;4.442;2023-07-28T01:58:53;17.90;93.20
82243;DHT22;71844;51.528;4.442;2023-07-28T02:01:19;17.90;93.30
82243;DHT22;71844;51.528;4.442;2023-07-28T02:03:46;17.90;93.20
82243;DHT22;71844;51.528;4.442;2023-07-28T02:06:13;17.90;93.20
82243;DHT22;71844;51.528;4.442;2023-07-28T02:08:39;18.00;93.20
82243;DHT22;71844;51.528;4.442;2023-07-28T02:11:06;17.90;93.30
82243;DHT22;71844;51.528;4.442;2023-07-28T02:13:33;18.00;93.20
82243;DHT22;71844;51.528;4.442;2023-07-28T02:16:00;17.90;93.30
82243;DHT22;71844;51.528;4.442;2023-07-28T02:18:27;18.00;93.10
82243;DHT22;71844;51.528;4.442;2023-07-28T02:20:53;18.00;93.20
82243;DHT22;71844;51.528;4.442;2023-07-28T02:23:20;18.00;93.20
82243;DHT22;71844;51.528;4.442;2023-07-28T02:25:47;18.00;93.20
82243;DHT22;71844;51.528;4.442;2023-07-28T02:28:13;18.00;93.20
82243;DHT22;71844;51.528;4.442;2023-07-28T02:30:40;18.00;93.20
82243;DHT22;71844;51.528;4.442;2023-07-28T02:33:07;18.00;93.20
82243;DHT22;71844;51.528;4.442;2023-07-28T02:35:34;18.00;93.10
82243;DHT22;71844;51.528;4.442;2023-07-28T02:38:01;18.00;93.20
82243;DHT22;71844;51.528;4.442;2023-07-28T02:40:28;18.00;93.20
82243;DHT22;71844;51.528;4.442;2023-07-28T02:42:55;18.00;93.20
82243;DHT22;71844;51.528;4.442;2023-07-28T02:45:23;18.00;93.20
82243;DHT22;71844;51.528;4.442;2023-07-28T02:47:51;18.00;93.20
82243;DHT22;71844;51.528;4.442;2023-07-28T02:50:18;18.00;93.10
82243;DHT22;71844;51.528;4.442;2023-07-28T02:52:44;18.00;93.20
82243;DHT22;71844;51.528;4.442;2023-07-28T02:55:11;18.00;93.10
82243;DHT22;71844;51.528;4.442;2023-07-28T02:57:38;18.00;93.10
82243;DHT22;71844;51.528;4.442;2023-07-28T03:00:05;18.00;93.10
82243;DHT22;71844;51.528;4.442;2023-07-28T03:02:34;18.00;93.10
82243;DHT22;71844;51.528;4.442;2023-07-28T03:05:01;18.00;93.10
82243;DHT22;71844;51.528;4.442;2023-07-28T03:07:27;18.00;93.00
82243;DHT22;71844;51.528;4.442;2023-07-28T03:09:54;18.00;93.00
82243;DHT22;71844;51.528;4.442;2023-07-28T03:12:21;18.00;93.00
82243;DHT22;71844;51.528;4.442;2023-07-28T03:14:47;18.00;93.00
82243;DHT22;71844;51.528;4.442;2023-07-28T03:17:14;18.00;93.00
82243;DHT22;71844;51.528;4.442;2023-07-28T03:19:41;18.00;93.00
82243;DHT22;71844;51.528;4.442;2023-07-28T03:22:08;18.00;92.90
82243;DHT22;71844;51.528;4.442;2023-07-28T03:24:34;18.00;92.90
82243;DHT22;71844;51.528;4.442;2023-07-28T03:27:01;18.00;92.90
82243;DHT22;71844;51.528;4.442;2023-07-28T03:29:28;18.00;92.80
82243;DHT22;71844;51.528;4.442;2023-07-28T03:32:00;18.00;92.80
82243;DHT22;71844;51.528;4.442;2023-07-28T03:34:27;18.00;92.80
82243;DHT22;71844;51.528;4.442;2023-07-28T03:36:54;18.00;92.80
82243;DHT22;71844;51.528;4.442;2023-07-28T03:39:21;18.00;92.70
82243;DHT22;71844;51.528;4.442;2023-07-28T03:41:48;18.00;92.80
82243;DHT22;71844;51.528;4.442;2023-07-28T03:44:15;18.00;92.80
82243;DHT22;71844;51.528;4.442;2023-07-28T03:46:42;18.00;92.70
82243;DHT22;71844;51.528;4.442;2023-07-28T03:49:09;18.00;92.80
82243;DHT22;71844;51.528;4.442;2023-07-28T03:51:36;18.00;92.70
82243;DHT22;71844;51.528;4.442;2023-07-28T03:54:03;18.00;92.70
82243;DHT22;71844;51.528;4.442;2023-07-28T03:56:30;18.00;92.70
82243;DHT22;71844;51.528;4.442;2023-07-28T03:58:56;18.00;92.70
82243;DHT22;71844;51.528;4.442;2023-07-28T04:01:23;18.00;92.60
82243;DHT22;71844;51.528;4.442;2023-07-28T04:03:50;18.00;92.60
82243;DHT22;71844;51.528;4.442;2023-07-28T04:06:17;18.10;92.60
82243;DHT22;71844;51.528;4.442;2023-07-28T04:08:44;18.00;92.50
82243;DHT22;71844;51.528;4.442;2023-07-28T04:11:11;18.00;92.50
82243;DHT22;71844;51.528;4.442;2023-07-28T04:13:38;18.10;92.50
82243;DHT22;71844;51.528;4.442;2023-07-28T04:16:05;18.10;92.50
82243;DHT22;71844;51.528;4.442;2023-07-28T04:18:31;18.10;92.50
82243;DHT22;71844;51.528;4.442;2023-07-28T04:20:58;18.10;92.40
82243;DHT22;71844;51.528;4.442;2023-07-28T04:23:25;18.10;92.40
82243;DHT22;71844;51.528;4.442;2023-07-28T04:25:52;18.10;92.40
82243;DHT22;71844;51.528;4.442;2023-07-28T04:28:19;18.10;92.40
82243;DHT22;71844;51.528;4.442;2023-07-28T04:30:46;18.10;92.40
82243;DHT22;71844;51.528;4.442;2023-07-28T04:33:13;18.10;92.40
82243;DHT22;71844;51.528;4.442;2023-07-28T04:35:39;18.10;92.40
82243;DHT22;71844;51.528;4.442;2023-07-28T04:38:06;18.10;92.40
82243;DHT22;71844;51.528;4.442;2023-07-28T04:40:33;18.10;92.40
82243;DHT22;71844;51.528;4.442;2023-07-28T04:43:00;18.10;92.50
82243;DHT22;71844;51.528;4.442;2023-07-28T04:45:26;18.20;92.50
82243;DHT22;71844;51.528;4.442;2023-07-28T04:47:53;18.20;92.40
82243;DHT22;71844;51.528;4.442;2023-07-28T04:50:20;18.20;92.40
82243;DHT22;71844;51.528;4.442;2023-07-28T04:52:46;18.20;92.30
82243;DHT22;71844;51.528;4.442;2023-07-28T04:55:13;18.20;92.30
82243;DHT22;71844;51.528;4.442;2023-07-28T04:57:41;18.20;92.30
82243;DHT22;71844;51.528;4.442;2023-07-28T05:00:09;18.20;92.30
82243;DHT22;71844;51.528;4.442;2023-07-28T05:02:37;18.20;92.20
82243;DHT22;71844;51.528;4.442;2023-07-28T05:05:04;18.30;92.20
82243;DHT22;71844;51.528;4.442;2023-07-28T05:07:30;18.30;92.10
82243;DHT22;71844;51.528;4.442;2023-07-28T05:09:57;18.20;92.00
82243;DHT22;71844;51.528;4.442;2023-07-28T05:12:24;18.30;92.10
82243;DHT22;71844;51.528;4.442;2023-07-28T05:14:51;18.30;92.10
82243;DHT22;71844;51.528;4.442;2023-07-28T05:17:17;18.30;92.10
82243;DHT22;71844;51.528;4.442;2023-07-28T05:19:44;18.30;92.10
82243;DHT22;71844;51.528;4.442;2023-07-28T05:22:11;18.30;92.00
82243;DHT22;71844;51.528;4.442;2023-07-28T05:24:38;18.30;91.90
82243;DHT22;71844;51.528;4.442;2023-07-28T05:27:05;18.30;91.90
82243;DHT22;71844;51.528;4.442;2023-07-28T05:29:32;18.30;91.90
82243;DHT22;71844;51.528;4.442;2023-07-28T05:31:59;18.30;91.90
82243;DHT22;71844;51.528;4.442;2023-07-28T05:34:30;18.30;91.90
82243;DHT22;71844;51.528;4.442;2023-07-28T05:36:58;18.30;91.80
82243;DHT22;71844;51.528;4.442;2023-07-28T05:39:25;18.40;91.80
82243;DHT22;71844;51.528;4.442;2023-07-28T05:41:51;18.40;91.80
82243;DHT22;71844;51.528;4.442;2023-07-28T05:44:18;18.30;91.80
82243;DHT22;71844;51.528;4.442;2023-07-28T05:46:45;18.40;91.90
82243;DHT22;71844;51.528;4.442;2023-07-28T05:49:15;18.40;91.70
82243;DHT22;71844;51.528;4.442;2023-07-28T05:51:41;18.40;91.70
82243;DHT22;71844;51.528;4.442;2023-07-28T05:54:08;18.40;91.70
82243;DHT22;71844;51.528;4.442;2023-07-28T05:56:35;18.40;91.70
82243;DHT22;71844;51.528;4.442;2023-07-28T05:59:02;18.40;91.70
82243;DHT22;71844;51.528;4.442;2023-07-28T06:01:28;18.40;91.60
82243;DHT22;71844;51.528;4.442;2023-07-28T06:03:55;18.40;91.60
82243;DHT22;71844;51.528;4.442;2023-07-28T06:06:26;18.40;91.60
82243;DHT22;71844;51.528;4.442;2023-07-28T06:08:54;18.40;91.50
82243;DHT22;71844;51.528;4.442;2023-07-28T06:11:21;18.40;91.60
82243;DHT22;71844;51.528;4.442;2023-07-28T06:13:48;18.40;91.60
82243;DHT22;71844;51.528;4.442;2023-07-28T06:16:14;18.50;91.50
82243;DHT22;71844;51.528;4.442;2023-07-28T06:18:42;18.40;91.40
82243;DHT22;71844;51.528;4.442;2023-07-28T06:21:09;18.50;91.40
82243;DHT22;71844;51.528;4.442;2023-07-28T06:23:35;18.50;91.40
82243;DHT22;71844;51.528;4.442;2023-07-28T06:26:02;18.50;91.40
82243;DHT22;71844;51.528;4.442;2023-07-28T06:28:29;18.50;91.30
82243;DHT22;71844;51.528;4.442;2023-07-28T06:30:58;18.50;91.30
82243;DHT22;71844;51.528;4.442;2023-07-28T06:33:25;18.50;91.30
82243;DHT22;71844;51.528;4.442;2023-07-28T06:35:52;18.50;91.20
82243;DHT22;71844;51.528;4.442;2023-07-28T06:38:19;18.50;91.20
82243;DHT22;71844;51.528;4.442;2023-07-28T06:40:46;18.50;91.20
82243;DHT22;71844;51.528;4.442;2023-07-28T06:43:12;18.50;91.20
82243;DHT22;71844;51.528;4.442;2023-07-28T06:45:39;18.50;91.10
82243;DHT22;71844;51.528;4.442;2023-07-28T06:48:06;18.50;91.00
82243;DHT22;71844;51.528;4.442;2023-07-28T06:50:33;18.50;91.00
82243;DHT22;71844;51.528;4.442;2023-07-28T06:52:59;18.50;91.00
82243;DHT22;71844;51.528;4.442;2023-07-28T06:55:26;18.50;91.00
82243;DHT22;71844;51.528;4.442;2023-07-28T06:57:53;18.40;90.90
82243;DHT22;71844;51.528;4.442;2023-07-28T07:00:20;18.50;91.10
82243;DHT22;71844;51.528;4.442;2023-07-28T07:02:46;18.50;91.00
82243;DHT22;71844;51.528;4.442;2023-07-28T07:05:13;18.50;91.00
82243;DHT22;71844;51.528;4.442;2023-07-28T07:07:40;18.50;90.80
82243;DHT22;71844;51.528;4.442;2023-07-28T07:10:08;18.50;90.80
82243;DHT22;71844;51.528;4.442;2023-07-28T07:12:35;18.60;90.80
82243;DHT22;71844;51.528;4.442;2023-07-28T07:15:02;18.60;90.80
82243;DHT22;71844;51.528;4.442;2023-07-28T07:17:29;18.60;90.60
82243;DHT22;71844;51.528;4.442;2023-07-28T07:19:56;18.60;90.60
82243;DHT22;71844;51.528;4.442;2023-07-28T07:22:23;18.70;90.50
82243;DHT22;71844;51.528;4.442;2023-07-28T07:24:50;18.70;90.50
82243;DHT22;71844;51.528;4.442;2023-07-28T07:27:16;18.70;90.30
82243;DHT22;71844;51.528;4.442;2023-07-28T07:29:43;18.70;90.30
82243;DHT22;71844;51.528;4.442;2023-07-28T07:32:10;18.70;90.20
82243;DHT22;71844;51.528;4.442;2023-07-28T07:34:37;18.70;90.30
82243;DHT22;71844;51.528;4.442;2023-07-28T07:37:05;18.70;90.30
82243;DHT22;71844;51.528;4.442;2023-07-28T07:39:32;18.80;90.30
82243;DHT22;71844;51.528;4.442;2023-07-28T07:42:00;18.80;90.10
82243;DHT22;71844;51.528;4.442;2023-07-28T07:44:27;18.90;90.00
82243;DHT22;71844;51.528;4.442;2023-07-28T07:46:55;18.90;89.90
82243;DHT22;71844;51.528;4.442;2023-07-28T07:49:22;19.00;90.00
82243;DHT22;71844;51.528;4.442;2023-07-28T07:51:50;19.00;89.90
82243;DHT22;71844;51.528;4.442;2023-07-28T07:54:16;19.10;89.70
82243;DHT22;71844;51.528;4.442;2023-07-28T07:56:45;19.10;89.80
82243;DHT22;71844;51.528;4.442;2023-07-28T07:59:13;19.20;89.30
82243;DHT22;71844;51.528;4.442;2023-07-28T08:01:40;19.20;89.40
82243;DHT22;71844;51.528;4.442;2023-07-28T08:04:07;19.30;89.30
82243;DHT22;71844;51.528;4.442;2023-07-28T08:06:34;19.30;89.10
82243;DHT22;71844;51.528;4.442;2023-07-28T08:09:01;19.40;89.10
82243;DHT22;71844;51.528;4.442;2023-07-28T08:11:28;19.40;89.00
82243;DHT22;71844;51.528;4.442;2023-07-28T08:13:55;19.50;89.00
82243;DHT22;71844;51.528;4.442;2023-07-28T08:16:22;19.60;88.90
82243;DHT22;71844;51.528;4.442;2023-07-28T08:18:49;19.60;88.60
82243;DHT22;71844;51.528;4.442;2023-07-28T08:21:15;19.70;88.50
82243;DHT22;71844;51.528;4.442;2023-07-28T08:23:42;19.70;88.30
82243;DHT22;71844;51.528;4.442;2023-07-28T08:26:09;19.80;88.10
82243;DHT22;71844;51.528;4.442;2023-07-28T08:28:38;19.90;88.30
82243;DHT22;71844;51.528;4.442;2023-07-28T08:31:05;19.90;88.10
82243;DHT22;71844;51.528;4.442;2023-07-28T08:33:32;20.00;87.90
82243;DHT22;71844;51.528;4.442;2023-07-28T08:36:01;20.10;87.10
82243;DHT22;71844;51.528;4.442;2023-07-28T08:38:31;20.10;87.00
82243;DHT22;71844;51.528;4.442;2023-07-28T08:40:57;20.20;87.10
82243;DHT22;71844;51.528;4.442;2023-07-28T08:43:25;20.20;86.90
82243;DHT22;71844;51.528;4.442;2023-07-28T08:45:53;20.20;86.60
82243;DHT22;71844;51.528;4.442;2023-07-28T08:48:21;20.30;86.40
82243;DHT22;71844;51.528;4.442;2023-07-28T08:50:48;20.30;86.10
82243;DHT22;71844;51.528;4.442;2023-07-28T08:53:16;20.30;86.20
82243;DHT22;71844;51.528;4.442;2023-07-28T08:55:43;20.40;86.20
82243;DHT22;71844;51.528;4.442;2023-07-28T08:58:17;20.40;85.90
82243;DHT22;71844;51.528;4.442;2023-07-28T09:00:47;20.40;85.20
82243;DHT22;71844;51.528;4.442;2023-07-28T09:03:17;20.50;85.10
82243;DHT22;71844;51.528;4.442;2023-07-28T09:05:45;20.50;85.30
82243;DHT22;71844;51.528;4.442;2023-07-28T09:08:16;20.60;85.30
82243;DHT22;71844;51.528;4.442;2023-07-28T09:10:47;20.70;85.00
82243;DHT22;71844;51.528;4.442;2023-07-28T09:13:18;20.80;84.80
82243;DHT22;71844;51.528;4.442;2023-07-28T09:15:47;21.00;84.40
82243;DHT22;71844;51.528;4.442;2023-07-28T09:18:17;21.00;83.90
82243;DHT22;71844;51.528;4.442;2023-07-28T09:20:44;21.10;83.90
82243;DHT22;71844;51.528;4.442;2023-07-28T09:23:13;21.20;83.30
82243;DHT22;71844;51.528;4.442;2023-07-28T09:25:40;21.20;83.00
82243;DHT22;71844;51.528;4.442;2023-07-28T09:28:07;21.20;80.90
82243;DHT22;71844;51.528;4.442;2023-07-28T09:30:54;21.20;82.50
82243;DHT22;71844;51.528;4.442;2023-07-28T09:33:31;21.30;81.80
82243;DHT22;71844;51.528;4.442;2023-07-28T09:36:08;21.40;81.20
82243;DHT22;71844;51.528;4.442;2023-07-28T09:38:39;21.40;82.20
82243;DHT22;71844;51.528;4.442;2023-07-28T09:41:09;21.60;81.70
82243;DHT22;71844;51.528;4.442;2023-07-28T09:43:37;21.60;81.40
82243;DHT22;71844;51.528;4.442;2023-07-28T09:46:06;21.70;79.20
82243;DHT22;71844;51.528;4.442;2023-07-28T09:48:34;21.80;80.80
82243;DHT22;71844;51.528;4.442;2023-07-28T09:51:08;21.80;80.80
82243;DHT22;71844;51.528;4.442;2023-07-28T09:53:44;21.90;80.50
82243;DHT22;71844;51.528;4.442;2023-07-28T09:56:15;22.00;80.20
82243;DHT22;71844;51.528;4.442;2023-07-28T09:58:49;22.10;79.70
82243;DHT22;71844;51.528;4.442;2023-07-28T10:01:17;22.10;79.60
82243;DHT22;71844;51.528;4.442;2023-07-28T10:03:45;22.10;79.50
82243;DHT22;71844;51.528;4.442;2023-07-28T10:06:14;22.10;79.20
82243;DHT22;71844;51.528;4.442;2023-07-28T10:08:44;22.20;79.10
82243;DHT22;71844;51.528;4.442;2023-07-28T10:11:15;22.30;78.90
82243;DHT22;71844;51.528;4.442;2023-07-28T10:13:44;22.50;78.70
82243;DHT22;71844;51.528;4.442;2023-07-28T10:16:13;22.80;78.10
82243;DHT22;71844;51.528;4.442;2023-07-28T10:18:51;22.90;77.20
82243;DHT22;71844;51.528;4.442;2023-07-28T10:21:19;23.00;75.80
82243;DHT22;71844;51.528;4.442;2023-07-28T10:23:56;23.10;76.60
82243;DHT22;71844;51.528;4.442;2023-07-28T10:26:38;23.30;76.20
82243;DHT22;71844;51.528;4.442;2023-07-28T10:29:10;23.50;74.30
82243;DHT22;71844;51.528;4.442;2023-07-28T10:31:37;23.40;74.40
82243;DHT22;71844;51.528;4.442;2023-07-28T10:34:17;23.40;75.00
82243;DHT22;71844;51.528;4.442;2023-07-28T10:36:44;23.40;74.50
82243;DHT22;71844;51.528;4.442;2023-07-28T10:39:14;23.60;74.80
82243;DHT22;71844;51.528;4.442;2023-07-28T10:42:04;23.90;74.30
82243;DHT22;71844;51.528;4.442;2023-07-28T10:44:32;24.30;70.80
82243;DHT22;71844;51.528;4.442;2023-07-28T10:46:59;24.60;73.20
82243;DHT22;71844;51.528;4.442;2023-07-28T10:49:26;24.80;72.20
82243;DHT22;71844;51.528;4.442;2023-07-28T10:51:53;24.90;71.50
82243;DHT22;71844;51.528;4.442;2023-07-28T10:54:20;24.80;71.00
82243;DHT22;71844;51.528;4.442;2023-07-28T10:56:48;24.70;70.60
82243;DHT22;71844;51.528;4.442;2023-07-28T10:59:15;24.50;70.20
82243;DHT22;71844;51.528;4.442;2023-07-28T11:01:42;24.40;70.30
82243;DHT22;71844;51.528;4.442;2023-07-28T11:04:15;24.40;70.30
82243;DHT22;71844;51.528;4.442;2023-07-28T11:06:51;24.40;69.90
82243;DHT22;71844;51.528;4.442;2023-07-28T11:09:22;24.70;69.50
82243;DHT22;71844;51.528;4.442;2023-07-28T11:11:50;24.90;69.30
82243;DHT22;71844;51.528;4.442;2023-07-28T11:14:18;25.00;68.60
82243;DHT22;71844;51.528;4.442;2023-07-28T11:16:46;25.00;68.20
82243;DHT22;71844;51.528;4.442;2023-07-28T11:19:15;25.00;67.80
82243;DHT22;71844;51.528;4.442;2023-07-28T11:21:44;24.90;67.70
82243;DHT22;71844;51.528;4.442;2023-07-28T11:24:11;24.90;67.60
82243;DHT22;71844;51.528;4.442;2023-07-28T11:26:39;24.80;67.50
82243;DHT22;71844;51.528;4.442;2023-07-28T11:29:06;24.80;67.00
82243;DHT22;71844;51.528;4.442;2023-07-28T11:31:34;24.60;66.50
82243;DHT22;71844;51.528;4.442;2023-07-28T11:34:02;24.40;66.40
82243;DHT22;71844;51.528;4.442;2023-07-28T11:36:30;24.40;66.50
82243;DHT22;71844;51.528;4.442;2023-07-28T11:38:59;24.20;66.20
82243;DHT22;71844;51.528;4.442;2023-07-28T11:41:26;24.20;66.10
82243;DHT22;71844;51.528;4.442;2023-07-28T11:43:54;24.00;66.10
82243;DHT22;71844;51.528;4.442;2023-07-28T11:46:42;23.90;66.20
82243;DHT22;71844;51.528;4.442;2023-07-28T11:49:17;23.80;65.20
82243;DHT22;71844;51.528;4.442;2023-07-28T11:51:48;23.70;65.80
82243;DHT22;71844;51.528;4.442;2023-07-28T11:54:17;23.60;66.40
82243;DHT22;71844;51.528;4.442;2023-07-28T11:56:50;23.40;66.80
82243;DHT22;71844;51.528;4.442;2023-07-28T11:59:19;23.20;67.10
82243;DHT22;71844;51.528;4.442;2023-07-28T12:02:03;23.10;67.60
82243;DHT22;71844;51.528;4.442;2023-07-28T12:04:38;23.00;67.90
82243;DHT22;71844;51.528;4.442;2023-07-28T12:07:09;23.00;68.20
82243;DHT22;71844;51.528;4.442;2023-07-28T12:12:30;22.80;68.40
82243;DHT22;71844;51.528;4.442;2023-07-28T12:15:24;22.80;68.80
82243;DHT22;71844;51.528;4.442;2023-07-28T12:18:08;22.70;68.90
82243;DHT22;71844;51.528;4.442;2023-07-28T12:20:43;22.70;69.00
82243;DHT22;71844;51.528;4.442;2023-07-28T12:23:15;22.70;69.10
82243;DHT22;71844;51.528;4.442;2023-07-28T12:25:45;22.70;69.00
82243;DHT22;71844;51.528;4.442;2023-07-28T12:28:12;22.60;69.10
82243;DHT22;71844;51.528;4.442;2023-07-28T12:30:42;22.50;69.50
82243;DHT22;71844;51.528;4.442;2023-07-28T12:33:10;22.50;69.60
82243;DHT22;71844;51.528;4.442;2023-07-28T12:35:40;22.40;69.80
82243;DHT22;71844;51.528;4.442;2023-07-28T12:38:10;22.40;69.90
82243;DHT22;71844;51.528;4.442;2023-07-28T12:40:39;22.40;70.10
82243;DHT22;71844;51.528;4.442;2023-07-28T12:43:09;22.50;70.10
82243;DHT22;71844;51.528;4.442;2023-07-28T12:45:56;22.70;69.90
82243;DHT22;71844;51.528;4.442;2023-07-28T12:48:26;22.80;69.60
82243;DHT22;71844;51.528;4.442;2023-07-28T12:50:53;22.90;69.50
82243;DHT22;71844;51.528;4.442;2023-07-28T12:53:22;23.00;69.20
82243;DHT22;71844;51.528;4.442;2023-07-28T12:55:50;23.10;68.90
82243;DHT22;71844;51.528;4.442;2023-07-28T12:58:19;23.10;68.80
82243;DHT22;71844;51.528;4.442;2023-07-28T13:00:49;23.10;68.60
82243;DHT22;71844;51.528;4.442;2023-07-28T13:03:19;23.20;68.70
82243;DHT22;71844;51.528;4.442;2023-07-28T13:05:46;23.20;68.40
82243;DHT22;71844;51.528;4.442;2023-07-28T13:08:15;23.20;68.10
82243;DHT22;71844;51.528;4.442;2023-07-28T13:10:41;23.20;67.90
82243;DHT22;71844;51.528;4.442;2023-07-28T13:13:11;23.20;68.20
82243;DHT22;71844;51.528;4.442;2023-07-28T13:15:40;23.30;68.00
82243;DHT22;71844;51.528;4.442;2023-07-28T13:18:07;23.30;68.00
82243;DHT22;71844;51.528;4.442;2023-07-28T13:20:34;23.30;67.90
82243;DHT22;71844;51.528;4.442;2023-07-28T13:23:00;23.20;67.70
82243;DHT22;71844;51.528;4.442;2023-07-28T13:25:27;23.00;67.90
82243;DHT22;71844;51.528;4.442;2023-07-28T13:27:54;22.90;68.00
82243;DHT22;71844;51.528;4.442;2023-07-28T13:30:21;22.80;68.20
82243;DHT22;71844;51.528;4.442;2023-07-28T13:32:48;22.70;68.40
82243;DHT22;71844;51.528;4.442;2023-07-28T13:35:15;22.60;68.60
82243;DHT22;71844;51.528;4.442;2023-07-28T13:37:43;22.50;68.90
82243;DHT22;71844;51.528;4.442;2023-07-28T13:40:10;22.40;69.10
82243;DHT22;71844;51.528;4.442;2023-07-28T13:42:39;22.40;69.20
82243;DHT22;71844;51.528;4.442;2023-07-28T13:45:07;22.30;69.30
82243;DHT22;71844;51.528;4.442;2023-07-28T13:47:34;22.20;69.40
82243;DHT22;71844;51.528;4.442;2023-07-28T13:50:01;22.10;69.70
82243;DHT22;71844;51.528;4.442;2023-07-28T13:52:28;21.90;70.00
82243;DHT22;71844;51.528;4.442;2023-07-28T13:54:55;21.70;70.40
82243;DHT22;71844;51.528;4.442;2023-07-28T13:57:26;21.60;70.80
82243;DHT22;71844;51.528;4.442;2023-07-28T13:59:52;21.50;71.20
82243;DHT22;71844;51.528;4.442;2023-07-28T14:02:19;21.50;71.40
82243;DHT22;71844;51.528;4.442;2023-07-28T14:04:46;21.60;71.50
82243;DHT22;71844;51.528;4.442;2023-07-28T14:07:13;21.70;71.50
82243;DHT22;71844;51.528;4.442;2023-07-28T14:09:40;21.90;71.40
82243;DHT22;71844;51.528;4.442;2023-07-28T14:12:07;22.00;71.20
82243;DHT22;71844;51.528;4.442;2023-07-28T14:14:34;22.20;71.20
82243;DHT22;71844;51.528;4.442;2023-07-28T14:17:01;22.40;70.90
82243;DHT22;71844;51.528;4.442;2023-07-28T14:19:27;22.50;70.60
82243;DHT22;71844;51.528;4.442;2023-07-28T14:21:54;22.60;70.60
82243;DHT22;71844;51.528;4.442;2023-07-28T14:24:21;22.70;70.30
82243;DHT22;71844;51.528;4.442;2023-07-28T14:26:48;22.80;70.00
82243;DHT22;71844;51.528;4.442;2023-07-28T14:29:15;22.80;69.80
82243;DHT22;71844;51.528;4.442;2023-07-28T14:31:42;22.90;69.60
82243;DHT22;71844;51.528;4.442;2023-07-28T14:34:08;22.90;69.40
82243;DHT22;71844;51.528;4.442;2023-07-28T14:36:35;23.00;69.20
82243;DHT22;71844;51.528;4.442;2023-07-28T14:39:02;23.00;69.00
82243;DHT22;71844;51.528;4.442;2023-07-28T14:41:30;23.10;69.00
82243;DHT22;71844;51.528;4.442;2023-07-28T14:43:57;23.20;68.80
82243;DHT22;71844;51.528;4.442;2023-07-28T14:46:24;23.20;68.70
82243;DHT22;71844;51.528;4.442;2023-07-28T14:48:52;23.40;68.50
82243;DHT22;71844;51.528;4.442;2023-07-28T14:51:20;23.50;68.10
82243;DHT22;71844;51.528;4.442;2023-07-28T14:53:47;23.50;67.80
82243;DHT22;71844;51.528;4.442;2023-07-28T14:56:15;23.60;67.70
82243;DHT22;71844;51.528;4.442;2023-07-28T14:58:43;23.80;67.30
82243;DHT22;71844;51.528;4.442;2023-07-28T15:01:10;24.00;67.00
82243;DHT22;71844;51.528;4.442;2023-07-28T15:03:38;24.30;66.60
82243;DHT22;71844;51.528;4.442;2023-07-28T15:06:07;24.50;65.80
82243;DHT22;71844;51.528;4.442;2023-07-28T15:08:34;24.40;65.30
82243;DHT22;71844;51.528;4.442;2023-07-28T15:11:00;24.30;65.20
82243;DHT22;71844;51.528;4.442;2023-07-28T15:13:27;24.30;64.80
82243;DHT22;71844;51.528;4.442;2023-07-28T15:15:54;24.20;64.70
82243;DHT22;71844;51.528;4.442;2023-07-28T15:18:21;24.10;64.70
82243;DHT22;71844;51.528;4.442;2023-07-28T15:20:48;24.10;64.60
82243;DHT22;71844;51.528;4.442;2023-07-28T15:23:15;24.10;64.70
82243;DHT22;71844;51.528;4.442;2023-07-28T15:25:42;24.10;64.80
82243;DHT22;71844;51.528;4.442;2023-07-28T15:28:10;24.20;64.50
82243;DHT22;71844;51.528;4.442;2023-07-28T15:30:38;24.20;64.30
82243;DHT22;71844;51.528;4.442;2023-07-28T15:33:05;24.10;64.50
82243;DHT22;71844;51.528;4.442;2023-07-28T15:35:32;24.20;64.40
82243;DHT22;71844;51.528;4.442;2023-07-28T15:37:59;24.20;64.40
82243;DHT22;71844;51.528;4.442;2023-07-28T15:40:25;24.20;64.40
82243;DHT22;71844;51.528;4.442;2023-07-28T15:42:52;24.30;64.10